AirNav   Air Wisconsin Up To $57,000 Bonus
 
 1688 users online  

CL35 Warner Springs Gliderport
Warner Springs, California, USA

GOING TO WARNER SPRINGS?


FAA INFORMATION EFFECTIVE 21 APRIL 2022

Location

FAA Identifier: CL35
Lat/Long: 33-17-04.2100N 116-40-10.7650W
33-17.070167N 116-40.179417W
33.2845028,-116.6696569
(estimated)
Elevation: 2880 ft. / 878 m (estimated)
Variation: 13E (1985)
From city: 2 miles E of WARNER SPRINGS, CA
Time zone: UTC -7 (UTC -8 during Standard Time)
Zip code: 92086

Gliderport Operations

Gliderport use: Private use. Permission required prior to landing
Activation date: 10/1984
Control tower: no
ARTCC: LOS ANGELES CENTER
FSS: SAN DIEGO FLIGHT SERVICE STATION
Attendance: 0900-1700
Wind indicator: yes
Segmented circle: yes
Landing fee: yes

Gliderport Communications

UNICOM: 122.8
WX AWOS-3P at L08 (18 nm E): 126.575 (760-767-3308)
WX ASOS at RNM (19 nm SW): PHONE 760-789-7699

Nearby radio navigation aids

VOR radial/distance  VOR name  Freq  Var
JLIr319/9.6JULIAN VORTAC114.0015E
TRMr218/32.8THERMAL VORTAC116.2013E
PSPr186/37.1PALM SPRINGS VORTAC115.5013E
OCNr071/37.6OCEANSIDE VORTAC115.3015E
HDFr125/(39.2)HOMELAND VOR112.0514E

Gliderport Services

Runway Information

Runway 8/26

Dimensions: 3500 x 70 ft. / 1067 x 21 m
Surface: asphalt
RUNWAY 8  RUNWAY 26
Latitude: 33-17.060333N33-17.080000N
Longitude: 116-40.522667W116-39.836167W
Elevation: 2873.0 ft.2914.0 ft.
Traffic pattern: leftleft
Obstructions: none200 ft. hill, 5200 ft. from runway

Gliderport Ownership and Management from official FAA records

Ownership: Privately-owned
Owner: WARNER SPRINGS RANCH RESORT, LLC
31930 HWY 79
WARNER SPRINGS, CA 92086
Phone 760-782-4200
SKY SAILING 31930 HWY 79.
Manager: BRET WILLAT
SKY SAILING INC., 31930 HWY 79
WARNER SPRINGS, CA 92086
Phone 760-782-0404
LEASEE.

Gliderport Operational Statistics

Aircraft based on the field: 80
Single engine airplanes: 10
Gliders airplanes: 70
    

Additional Remarks

FOR CD CTC LOS ANGELES ARTCC AT 661-575-2079.

Instrument Procedures

There are no published instrument procedures at CL35.

Some nearby airports with instrument procedures:

L08 - Borrego Valley Airport (18 nm E)
KRNM - Ramona Airport (19 nm SW)
F70 - French Valley Airport (29 nm NW)
L18 - Fallbrook Community Airpark (29 nm W)
KSEE - Gillespie Field Airport (31 nm SW)
 
Loc | Ops | Rwys | IFR | FBO | Links
Com | Nav | Svcs | Stats | Notes
Area around CL35 (Warner Springs Gliderport)
 
Road maps at: MapQuest Bing Google
 
Aerial photo
WARNING: Photo may not be current or correct
Aerial photo of CL35 (Warner Springs Gliderport)
Photo by Steve Lupinacci
Photo taken 27-May-2008

Do you have a better or more recent aerial photo of Warner Springs Gliderport that you would like to share? If so, please send us your photo.

 
Sectional chart

 
Airport distance calculator
Flying to Warner Springs Gliderport? Find the distance to fly.

From to CL35

Sunrise and sunset
Times for 18-May-2022
 Local
(UTC-7)
 Zulu
(UTC)
Morning civil twilight05:1812:18
Sunrise05:4612:46
Sunset19:4102:41
Evening civil twilight20:0803:08

Current date and time
Zulu (UTC)  18-May-2022 20:03:00
Local (UTC-7)  18-May-2022 13:03:00
 
METAR
KL08 
18nm E 
181955Z AUTO 12010KT 10SM CLR 33/04 A2990 RMK AO2
KRNM 
20nm SW 
181953Z 30008KT 10SM CLR 26/11 A2998 RMK AO2 SLP140 T02560111
KF70 
29nm NW 
181955Z AUTO 18006KT 10SM CLR 26/11 A2997 RMK AO2
KL18 
29nm W 
181955Z AUTO 22009KT 10SM CLR 22/12 A2999 RMK AO2
KSEE 
32nm SW 
181947Z 21008KT 10SM SKC 23/12 A2998
KCRQ 
32nm W 
181953Z AUTO 23009KT 10SM CLR 17/11 A2999 RMK AO2 SLP154 T01720111
KHMT 
32nm NW 
181955Z AUTO 20006KT 10SM CLR 29/11 A2997 RMK AO2 T02920110
KTRM 
33nm NE 
181952Z AUTO VRB05KT 10SM CLR 33/09 A2987 RMK AO2 SLP116 T03330089
KPSP 
33nm N 
181953Z VRB06KT 10SM CLR 34/09 A2991 RMK AO2 SLP123 T03390094
KNFG 
33nm W 
181852Z 22008KT 190V250 10SM FEW040 21/13 A3000 RMK AO2 SLP158 T02060133 $
TAF
KCRQ 
32nm W 
181724Z 1818/1918 23009KT P6SM FEW020 FM190200 20005KT P6SM SCT012 FM190400 VRB04KT P6SM OVC010 FM190900 VRB04KT P6SM OVC008 FM191700 VRB04KT P6SM SCT010
KTRM 
33nm NE 
181724Z 1818/1918 15007KT P6SM SKC FM190400 33008KT P6SM SKC FM191200 VRB04KT P6SM SKC
KPSP 
33nm N 
181724Z 1818/1918 12007KT P6SM SKC FM190030 33010KT P6SM SKC FM190600 VRB04KT P6SM SKC
KNFG 
33nm W 
1815/1915 VRB05KT 9999 OVC015 522409 523304 QNH2999INS BECMG 1817/1819 21010KT 9999 FEW040 522409 523304 QNH2990INS BECMG 1903/1905 VRB05KT 9999 BKN015 50000 QNH2993INS T21/1822Z T14/1914Z
KNKX 
34nm SW 
1816/1915 VRB05KT 9999 OVC015 522409 523304 QNH2998INS BECMG 1816/1818 VRB05KT 9999 SCT012 522409 523304 QNH2994INS FM181830 VRB05KT 9999 FEW012 522409 523304 QNH2993INS BECMG 1819/1821 25008KT 9999 FEW012 522409 523304 QNH2989INS FM182330 VRB05KT 9999 SCT010 522409 523304 QNH2990INS BECMG 1907/1909 VRB05KT 9999 BKN010 500000 QNH2987INS TEMPO 1910/1915 9000 BR OVC008 T21/1820Z T13/1913Z COR 1527
NOTAMs
Click for the latest NOTAMs
NOTAMs are issued by the DoD/FAA and will open in a separate window not controlled by AirNav.

 

 
 

Would you like to see your business listed on this page?

 If your business provides an interesting product or service to pilots, flight crews, aircraft, or users of the Warner Springs Gliderport, you should consider listing it here.  To start the listing process, click on the button below
 
Add a business
 

Other Pages about Warner Springs Gliderport

www.agcsc.org/warner_springs_info.html
 
Update a link
 
Copyright © AirNav, LLC. All rights reserved. Privacy Policy  Contact